sensor_id;sensor_type;location;lat;lon;timestamp;pressure;altitude;pressure_sealevel;temperature
65569;BMP180;52211;50.154;8.682;2024-01-30T00:00:42;101423.00;;;9.10
65569;BMP180;52211;50.154;8.682;2024-01-30T00:03:09;101420.00;;;9.10
65569;BMP180;52211;50.154;8.682;2024-01-30T00:05:36;101419.00;;;9.10
65569;BMP180;52211;50.154;8.682;2024-01-30T00:08:05;101423.00;;;9.10
65569;BMP180;52211;50.154;8.682;2024-01-30T00:10:39;101414.00;;;9.10
65569;BMP180;52211;50.154;8.682;2024-01-30T00:13:07;101406.00;;;9.10
65569;BMP180;52211;50.154;8.682;2024-01-30T00:15:34;101414.00;;;9.00
65569;BMP180;52211;50.154;8.682;2024-01-30T00:18:04;101419.00;;;9.00
65569;BMP180;52211;50.154;8.682;2024-01-30T00:20:35;101426.00;;;9.00
65569;BMP180;52211;50.154;8.682;2024-01-30T00:23:04;101415.00;;;9.00
65569;BMP180;52211;50.154;8.682;2024-01-30T00:25:33;101424.00;;;8.90
65569;BMP180;52211;50.154;8.682;2024-01-30T00:28:02;101415.00;;;8.90
65569;BMP180;52211;50.154;8.682;2024-01-30T00:30:35;101421.00;;;8.90
65569;BMP180;52211;50.154;8.682;2024-01-30T00:33:04;101404.00;;;8.80
65569;BMP180;52211;50.154;8.682;2024-01-30T00:35:36;101409.00;;;8.80
65569;BMP180;52211;50.154;8.682;2024-01-30T00:38:03;101400.00;;;8.80
65569;BMP180;52211;50.154;8.682;2024-01-30T00:40:34;101403.00;;;8.80
65569;BMP180;52211;50.154;8.682;2024-01-30T00:43:04;101411.00;;;8.70
65569;BMP180;52211;50.154;8.682;2024-01-30T00:45:33;101407.00;;;8.70
65569;BMP180;52211;50.154;8.682;2024-01-30T00:48:03;101402.00;;;8.70
65569;BMP180;52211;50.154;8.682;2024-01-30T00:50:30;101406.00;;;8.70
65569;BMP180;52211;50.154;8.682;2024-01-30T00:52:59;101410.00;;;8.70
65569;BMP180;52211;50.154;8.682;2024-01-30T00:55:26;101400.00;;;8.70
65569;BMP180;52211;50.154;8.682;2024-01-30T00:57:52;101410.00;;;8.70
65569;BMP180;52211;50.154;8.682;2024-01-30T01:00:20;101417.00;;;8.70
65569;BMP180;52211;50.154;8.682;2024-01-30T01:02:49;101423.00;;;8.60
65569;BMP180;52211;50.154;8.682;2024-01-30T01:05:17;101425.00;;;8.60
65569;BMP180;52211;50.154;8.682;2024-01-30T01:07:44;101423.00;;;8.60
65569;BMP180;52211;50.154;8.682;2024-01-30T01:10:12;101420.00;;;8.60
65569;BMP180;52211;50.154;8.682;2024-01-30T01:12:40;101420.00;;;8.60
65569;BMP180;52211;50.154;8.682;2024-01-30T01:15:08;101418.00;;;8.50
65569;BMP180;52211;50.154;8.682;2024-01-30T01:17:38;101419.00;;;8.50
65569;BMP180;52211;50.154;8.682;2024-01-30T01:20:07;101425.00;;;8.50
65569;BMP180;52211;50.154;8.682;2024-01-30T01:22:38;101423.00;;;8.50
65569;BMP180;52211;50.154;8.682;2024-01-30T01:25:08;101423.00;;;8.50
65569;BMP180;52211;50.154;8.682;2024-01-30T01:27:39;101414.00;;;8.50
65569;BMP180;52211;50.154;8.682;2024-01-30T01:30:12;101418.00;;;8.40
65569;BMP180;52211;50.154;8.682;2024-01-30T01:32:45;101416.00;;;8.40
65569;BMP180;52211;50.154;8.682;2024-01-30T01:35:19;101408.00;;;8.40
65569;BMP180;52211;50.154;8.682;2024-01-30T01:37:46;101416.00;;;8.40
65569;BMP180;52211;50.154;8.682;2024-01-30T01:40:25;101407.00;;;8.40
65569;BMP180;52211;50.154;8.682;2024-01-30T01:42:57;101406.00;;;8.40
65569;BMP180;52211;50.154;8.682;2024-01-30T01:45:24;101406.00;;;8.40
65569;BMP180;52211;50.154;8.682;2024-01-30T01:47:54;101406.00;;;8.40
65569;BMP180;52211;50.154;8.682;2024-01-30T01:50:22;101403.00;;;8.30
65569;BMP180;52211;50.154;8.682;2024-01-30T01:52:55;101395.00;;;8.40
65569;BMP180;52211;50.154;8.682;2024-01-30T01:55:24;101400.00;;;8.30
65569;BMP180;52211;50.154;8.682;2024-01-30T01:57:55;101390.00;;;8.40
65569;BMP180;52211;50.154;8.682;2024-01-30T02:00:25;101393.00;;;8.40
65569;BMP180;52211;50.154;8.682;2024-01-30T02:02:55;101392.00;;;8.30
65569;BMP180;52211;50.154;8.682;2024-01-30T02:05:26;101391.00;;;8.30
65569;BMP180;52211;50.154;8.682;2024-01-30T02:07:53;101392.00;;;8.20
65569;BMP180;52211;50.154;8.682;2024-01-30T02:10:21;101396.00;;;8.20
65569;BMP180;52211;50.154;8.682;2024-01-30T02:12:51;101395.00;;;8.20
65569;BMP180;52211;50.154;8.682;2024-01-30T02:15:20;101397.00;;;8.20
65569;BMP180;52211;50.154;8.682;2024-01-30T02:17:49;101396.00;;;8.20
65569;BMP180;52211;50.154;8.682;2024-01-30T02:20:16;101394.00;;;8.20
65569;BMP180;52211;50.154;8.682;2024-01-30T02:22:46;101397.00;;;8.10
65569;BMP180;52211;50.154;8.682;2024-01-30T02:25:17;101390.00;;;8.10
65569;BMP180;52211;50.154;8.682;2024-01-30T02:27:49;101391.00;;;8.10
65569;BMP180;52211;50.154;8.682;2024-01-30T02:30:16;101399.00;;;8.10
65569;BMP180;52211;50.154;8.682;2024-01-30T02:32:45;101394.00;;;8.10
65569;BMP180;52211;50.154;8.682;2024-01-30T02:35:12;101392.00;;;8.10
65569;BMP180;52211;50.154;8.682;2024-01-30T02:37:44;101393.00;;;8.00
65569;BMP180;52211;50.154;8.682;2024-01-30T02:40:11;101386.00;;;8.00
65569;BMP180;52211;50.154;8.682;2024-01-30T02:42:39;101384.00;;;8.00
65569;BMP180;52211;50.154;8.682;2024-01-30T02:45:11;101390.00;;;8.00
65569;BMP180;52211;50.154;8.682;2024-01-30T02:47:39;101390.00;;;8.00
65569;BMP180;52211;50.154;8.682;2024-01-30T02:50:13;101390.00;;;8.00
65569;BMP180;52211;50.154;8.682;2024-01-30T02:52:43;101384.00;;;8.00
65569;BMP180;52211;50.154;8.682;2024-01-30T02:55:15;101388.00;;;8.00
65569;BMP180;52211;50.154;8.682;2024-01-30T02:57:47;101389.00;;;8.00
65569;BMP180;52211;50.154;8.682;2024-01-30T03:00:18;101390.00;;;8.00
65569;BMP180;52211;50.154;8.682;2024-01-30T03:02:47;101381.00;;;8.00
65569;BMP180;52211;50.154;8.682;2024-01-30T03:05:14;101389.00;;;8.00
65569;BMP180;52211;50.154;8.682;2024-01-30T03:07:41;101383.00;;;8.00
65569;BMP180;52211;50.154;8.682;2024-01-30T03:10:10;101389.00;;;7.90
65569;BMP180;52211;50.154;8.682;2024-01-30T03:12:42;101388.00;;;8.00
65569;BMP180;52211;50.154;8.682;2024-01-30T03:15:09;101394.00;;;8.00
65569;BMP180;52211;50.154;8.682;2024-01-30T03:17:43;101387.00;;;7.90
65569;BMP180;52211;50.154;8.682;2024-01-30T03:20:11;101394.00;;;7.90
65569;BMP180;52211;50.154;8.682;2024-01-30T03:22:40;101389.00;;;7.90
65569;BMP180;52211;50.154;8.682;2024-01-30T03:25:11;101391.00;;;7.90
65569;BMP180;52211;50.154;8.682;2024-01-30T03:27:41;101389.00;;;7.90
65569;BMP180;52211;50.154;8.682;2024-01-30T03:30:10;101381.00;;;7.90
65569;BMP180;52211;50.154;8.682;2024-01-30T03:32:37;101390.00;;;7.90
65569;BMP180;52211;50.154;8.682;2024-01-30T03:35:05;101383.00;;;7.90
65569;BMP180;52211;50.154;8.682;2024-01-30T03:37:32;101386.00;;;7.90
65569;BMP180;52211;50.154;8.682;2024-01-30T03:39:59;101388.00;;;7.90
65569;BMP180;52211;50.154;8.682;2024-01-30T03:42:26;101396.00;;;7.80
65569;BMP180;52211;50.154;8.682;2024-01-30T03:44:53;101397.00;;;7.80
65569;BMP180;52211;50.154;8.682;2024-01-30T03:47:21;101388.00;;;7.80
65569;BMP180;52211;50.154;8.682;2024-01-30T03:49:53;101391.00;;;7.80
65569;BMP180;52211;50.154;8.682;2024-01-30T03:52:20;101389.00;;;7.80
65569;BMP180;52211;50.154;8.682;2024-01-30T03:54:49;101391.00;;;7.80
65569;BMP180;52211;50.154;8.682;2024-01-30T03:57:16;101389.00;;;7.80
65569;BMP180;52211;50.154;8.682;2024-01-30T03:59:46;101393.00;;;7.80
65569;BMP180;52211;50.154;8.682;2024-01-30T04:02:13;101385.00;;;7.80
65569;BMP180;52211;50.154;8.682;2024-01-30T04:04:42;101379.00;;;7.80
65569;BMP180;52211;50.154;8.682;2024-01-30T04:07:16;101382.00;;;7.80
65569;BMP180;52211;50.154;8.682;2024-01-30T04:09:44;101372.00;;;7.80
65569;BMP180;52211;50.154;8.682;2024-01-30T04:12:11;101378.00;;;7.80
65569;BMP180;52211;50.154;8.682;2024-01-30T04:14:43;101375.00;;;7.80
65569;BMP180;52211;50.154;8.682;2024-01-30T04:17:15;101376.00;;;7.80
65569;BMP180;52211;50.154;8.682;2024-01-30T04:19:48;101371.00;;;7.80
65569;BMP180;52211;50.154;8.682;2024-01-30T04:22:16;101364.00;;;7.80
65569;BMP180;52211;50.154;8.682;2024-01-30T04:24:47;101366.00;;;7.80
65569;BMP180;52211;50.154;8.682;2024-01-30T04:27:16;101374.00;;;7.90
65569;BMP180;52211;50.154;8.682;2024-01-30T04:29:46;101372.00;;;7.90
65569;BMP180;52211;50.154;8.682;2024-01-30T04:32:17;101365.00;;;7.90
65569;BMP180;52211;50.154;8.682;2024-01-30T04:34:49;101369.00;;;7.90
65569;BMP180;52211;50.154;8.682;2024-01-30T04:37:18;101378.00;;;8.00
65569;BMP180;52211;50.154;8.682;2024-01-30T04:39:45;101375.00;;;7.90
65569;BMP180;52211;50.154;8.682;2024-01-30T04:42:13;101372.00;;;8.00
65569;BMP180;52211;50.154;8.682;2024-01-30T04:44:43;101380.00;;;7.90
65569;BMP180;52211;50.154;8.682;2024-01-30T04:47:09;101373.00;;;7.90
65569;BMP180;52211;50.154;8.682;2024-01-30T04:49:43;101386.00;;;7.90
65569;BMP180;52211;50.154;8.682;2024-01-30T04:52:12;101388.00;;;7.90
65569;BMP180;52211;50.154;8.682;2024-01-30T04:54:41;101386.00;;;7.90
65569;BMP180;52211;50.154;8.682;2024-01-30T04:57:18;101389.00;;;7.80
65569;BMP180;52211;50.154;8.682;2024-01-30T04:59:47;101388.00;;;7.80
65569;BMP180;52211;50.154;8.682;2024-01-30T05:02:15;101392.00;;;7.80
65569;BMP180;52211;50.154;8.682;2024-01-30T05:04:47;101391.00;;;7.80
65569;BMP180;52211;50.154;8.682;2024-01-30T05:07:14;101393.00;;;7.80
65569;BMP180;52211;50.154;8.682;2024-01-30T05:09:41;101397.00;;;7.80
65569;BMP180;52211;50.154;8.682;2024-01-30T05:12:10;101396.00;;;7.80
65569;BMP180;52211;50.154;8.682;2024-01-30T05:14:37;101389.00;;;7.80
65569;BMP180;52211;50.154;8.682;2024-01-30T05:17:10;101397.00;;;7.80
65569;BMP180;52211;50.154;8.682;2024-01-30T05:19:42;101395.00;;;7.80
65569;BMP180;52211;50.154;8.682;2024-01-30T05:22:12;101401.00;;;7.80
65569;BMP180;52211;50.154;8.682;2024-01-30T05:24:45;101400.00;;;7.80
65569;BMP180;52211;50.154;8.682;2024-01-30T05:27:17;101391.00;;;7.80
65569;BMP180;52211;50.154;8.682;2024-01-30T05:29:44;101393.00;;;7.80
65569;BMP180;52211;50.154;8.682;2024-01-30T05:32:13;101394.00;;;7.80
65569;BMP180;52211;50.154;8.682;2024-01-30T05:34:40;101399.00;;;7.80
65569;BMP180;52211;50.154;8.682;2024-01-30T05:37:12;101397.00;;;7.80
65569;BMP180;52211;50.154;8.682;2024-01-30T05:39:45;101400.00;;;7.80
65569;BMP180;52211;50.154;8.682;2024-01-30T05:42:17;101406.00;;;7.80
65569;BMP180;52211;50.154;8.682;2024-01-30T05:44:43;101409.00;;;7.80
65569;BMP180;52211;50.154;8.682;2024-01-30T05:47:10;101412.00;;;7.80
65569;BMP180;52211;50.154;8.682;2024-01-30T05:49:37;101415.00;;;7.70
65569;BMP180;52211;50.154;8.682;2024-01-30T05:52:07;101410.00;;;7.70
65569;BMP180;52211;50.154;8.682;2024-01-30T05:54:34;101411.00;;;7.70
65569;BMP180;52211;50.154;8.682;2024-01-30T05:57:03;101418.00;;;7.70
65569;BMP180;52211;50.154;8.682;2024-01-30T05:59:33;101419.00;;;7.70
65569;BMP180;52211;50.154;8.682;2024-01-30T06:01:59;101410.00;;;7.70
65569;BMP180;52211;50.154;8.682;2024-01-30T06:04:27;101410.00;;;7.70
65569;BMP180;52211;50.154;8.682;2024-01-30T06:06:58;101413.00;;;7.70
65569;BMP180;52211;50.154;8.682;2024-01-30T06:09:33;101415.00;;;7.70
65569;BMP180;52211;50.154;8.682;2024-01-30T06:12:03;101411.00;;;7.70
65569;BMP180;52211;50.154;8.682;2024-01-30T06:14:33;101416.00;;;7.70
65569;BMP180;52211;50.154;8.682;2024-01-30T06:17:00;101417.00;;;7.70
65569;BMP180;52211;50.154;8.682;2024-01-30T06:19:27;101415.00;;;7.70
65569;BMP180;52211;50.154;8.682;2024-01-30T06:21:54;101416.00;;;7.70
65569;BMP180;52211;50.154;8.682;2024-01-30T06:24:26;101411.00;;;7.70
65569;BMP180;52211;50.154;8.682;2024-01-30T06:26:59;101413.00;;;7.70
65569;BMP180;52211;50.154;8.682;2024-01-30T06:29:26;101418.00;;;7.70
65569;BMP180;52211;50.154;8.682;2024-01-30T06:31:59;101417.00;;;7.70
65569;BMP180;52211;50.154;8.682;2024-01-30T06:34:28;101411.00;;;7.60
65569;BMP180;52211;50.154;8.682;2024-01-30T06:37:00;101403.00;;;7.60
65569;BMP180;52211;50.154;8.682;2024-01-30T06:39:27;101417.00;;;7.60
65569;BMP180;52211;50.154;8.682;2024-01-30T06:41:54;101402.00;;;7.60
65569;BMP180;52211;50.154;8.682;2024-01-30T06:44:23;101401.00;;;7.60
65569;BMP180;52211;50.154;8.682;2024-01-30T06:46:58;101407.00;;;7.60
65569;BMP180;52211;50.154;8.682;2024-01-30T06:49:25;101411.00;;;7.60
65569;BMP180;52211;50.154;8.682;2024-01-30T06:51:52;101405.00;;;7.60
65569;BMP180;52211;50.154;8.682;2024-01-30T06:54:22;101414.00;;;7.60
65569;BMP180;52211;50.154;8.682;2024-01-30T06:56:51;101415.00;;;7.60
65569;BMP180;52211;50.154;8.682;2024-01-30T06:59:27;101408.00;;;7.60
65569;BMP180;52211;50.154;8.682;2024-01-30T07:01:54;101410.00;;;7.60
65569;BMP180;52211;50.154;8.682;2024-01-30T07:04:21;101420.00;;;7.50
65569;BMP180;52211;50.154;8.682;2024-01-30T07:06:51;101417.00;;;7.60
65569;BMP180;52211;50.154;8.682;2024-01-30T07:09:20;101417.00;;;7.60
65569;BMP180;52211;50.154;8.682;2024-01-30T07:11:49;101422.00;;;7.60
65569;BMP180;52211;50.154;8.682;2024-01-30T07:14:20;101409.00;;;7.60
65569;BMP180;52211;50.154;8.682;2024-01-30T07:16:47;101411.00;;;7.60
65569;BMP180;52211;50.154;8.682;2024-01-30T07:19:16;101414.00;;;7.60
65569;BMP180;52211;50.154;8.682;2024-01-30T07:21:46;101418.00;;;7.60
65569;BMP180;52211;50.154;8.682;2024-01-30T07:24:15;101410.00;;;7.60
65569;BMP180;52211;50.154;8.682;2024-01-30T07:26:44;101410.00;;;7.60
65569;BMP180;52211;50.154;8.682;2024-01-30T07:29:11;101417.00;;;7.60
65569;BMP180;52211;50.154;8.682;2024-01-30T07:31:38;101406.00;;;7.60
65569;BMP180;52211;50.154;8.682;2024-01-30T07:34:07;101403.00;;;7.60
65569;BMP180;52211;50.154;8.682;2024-01-30T07:36:39;101401.00;;;7.60
65569;BMP180;52211;50.154;8.682;2024-01-30T07:39:06;101411.00;;;7.60
65569;BMP180;52211;50.154;8.682;2024-01-30T07:41:33;101417.00;;;7.60
65569;BMP180;52211;50.154;8.682;2024-01-30T07:44:00;101424.00;;;7.60
65569;BMP180;52211;50.154;8.682;2024-01-30T07:46:27;101421.00;;;7.60
65569;BMP180;52211;50.154;8.682;2024-01-30T07:48:54;101426.00;;;7.70
65569;BMP180;52211;50.154;8.682;2024-01-30T07:51:25;101421.00;;;7.70
65569;BMP180;52211;50.154;8.682;2024-01-30T07:53:52;101424.00;;;7.70
65569;BMP180;52211;50.154;8.682;2024-01-30T07:56:21;101423.00;;;7.70
65569;BMP180;52211;50.154;8.682;2024-01-30T07:58:50;101425.00;;;7.80
65569;BMP180;52211;50.154;8.682;2024-01-30T08:01:20;101416.00;;;7.80
65569;BMP180;52211;50.154;8.682;2024-01-30T08:03:49;101416.00;;;7.80
65569;BMP180;52211;50.154;8.682;2024-01-30T08:06:18;101420.00;;;7.90
65569;BMP180;52211;50.154;8.682;2024-01-30T08:08:46;101426.00;;;7.90
65569;BMP180;52211;50.154;8.682;2024-01-30T08:11:13;101425.00;;;8.00
65569;BMP180;52211;50.154;8.682;2024-01-30T08:13:40;101426.00;;;8.00
65569;BMP180;52211;50.154;8.682;2024-01-30T08:16:07;101438.00;;;8.10
65569;BMP180;52211;50.154;8.682;2024-01-30T08:18:43;101446.00;;;8.10
65569;BMP180;52211;50.154;8.682;2024-01-30T08:21:12;101441.00;;;8.20
65569;BMP180;52211;50.154;8.682;2024-01-30T08:23:44;101445.00;;;8.20
65569;BMP180;52211;50.154;8.682;2024-01-30T08:26:11;101445.00;;;8.30
65569;BMP180;52211;50.154;8.682;2024-01-30T08:28:40;101440.00;;;8.30
65569;BMP180;52211;50.154;8.682;2024-01-30T08:31:15;101439.00;;;8.40
65569;BMP180;52211;50.154;8.682;2024-01-30T08:33:45;101449.00;;;8.50
65569;BMP180;52211;50.154;8.682;2024-01-30T08:36:17;101444.00;;;8.50
65569;BMP180;52211;50.154;8.682;2024-01-30T08:38:44;101444.00;;;8.60
65569;BMP180;52211;50.154;8.682;2024-01-30T08:41:14;101443.00;;;8.60
65569;BMP180;52211;50.154;8.682;2024-01-30T08:43:43;101439.00;;;8.70
65569;BMP180;52211;50.154;8.682;2024-01-30T08:46:11;101438.00;;;8.80
65569;BMP180;52211;50.154;8.682;2024-01-30T08:48:41;101441.00;;;8.90
65569;BMP180;52211;50.154;8.682;2024-01-30T08:51:10;101449.00;;;9.00
65569;BMP180;52211;50.154;8.682;2024-01-30T08:53:38;101448.00;;;9.00
65569;BMP180;52211;50.154;8.682;2024-01-30T08:56:06;101446.00;;;9.10
65569;BMP180;52211;50.154;8.682;2024-01-30T08:58:38;101445.00;;;9.20
65569;BMP180;52211;50.154;8.682;2024-01-30T09:01:09;101464.00;;;9.30
65569;BMP180;52211;50.154;8.682;2024-01-30T09:03:36;101455.00;;;9.30
65569;BMP180;52211;50.154;8.682;2024-01-30T09:06:10;101453.00;;;9.40
65569;BMP180;52211;50.154;8.682;2024-01-30T09:08:39;101461.00;;;9.50
65569;BMP180;52211;50.154;8.682;2024-01-30T09:11:15;101457.00;;;9.60
65569;BMP180;52211;50.154;8.682;2024-01-30T09:13:44;101452.00;;;9.60
65569;BMP180;52211;50.154;8.682;2024-01-30T09:16:11;101457.00;;;9.70
65569;BMP180;52211;50.154;8.682;2024-01-30T09:18:40;101446.00;;;9.80
65569;BMP180;52211;50.154;8.682;2024-01-30T09:21:12;101446.00;;;9.80
65569;BMP180;52211;50.154;8.682;2024-01-30T09:23:41;101450.00;;;9.90
65569;BMP180;52211;50.154;8.682;2024-01-30T09:26:08;101441.00;;;9.90
65569;BMP180;52211;50.154;8.682;2024-01-30T09:28:35;101458.00;;;10.00
65569;BMP180;52211;50.154;8.682;2024-01-30T09:31:10;101460.00;;;10.10
65569;BMP180;52211;50.154;8.682;2024-01-30T09:33:37;101465.00;;;10.10
65569;BMP180;52211;50.154;8.682;2024-01-30T09:36:07;101463.00;;;10.20
65569;BMP180;52211;50.154;8.682;2024-01-30T09:38:36;101462.00;;;10.20
65569;BMP180;52211;50.154;8.682;2024-01-30T09:41:09;101467.00;;;10.30
65569;BMP180;52211;50.154;8.682;2024-01-30T09:43:39;101454.00;;;10.30
65569;BMP180;52211;50.154;8.682;2024-01-30T09:46:13;101464.00;;;10.30
65569;BMP180;52211;50.154;8.682;2024-01-30T09:48:42;101463.00;;;10.40
65569;BMP180;52211;50.154;8.682;2024-01-30T09:51:10;101457.00;;;10.40
65569;BMP180;52211;50.154;8.682;2024-01-30T09:53:41;101456.00;;;10.50
65569;BMP180;52211;50.154;8.682;2024-01-30T09:56:08;101456.00;;;10.50
65569;BMP180;52211;50.154;8.682;2024-01-30T09:58:38;101461.00;;;10.60
65569;BMP180;52211;50.154;8.682;2024-01-30T10:01:08;101457.00;;;10.60
65569;BMP180;52211;50.154;8.682;2024-01-30T10:03:38;101456.00;;;10.60
65569;BMP180;52211;50.154;8.682;2024-01-30T10:06:05;101462.00;;;10.60
65569;BMP180;52211;50.154;8.682;2024-01-30T10:08:35;101461.00;;;10.70
65569;BMP180;52211;50.154;8.682;2024-01-30T10:11:02;101453.00;;;10.70
65569;BMP180;52211;50.154;8.682;2024-01-30T10:13:32;101457.00;;;10.80
65569;BMP180;52211;50.154;8.682;2024-01-30T10:16:01;101463.00;;;10.80
65569;BMP180;52211;50.154;8.682;2024-01-30T10:18:29;101452.00;;;10.90
65569;BMP180;52211;50.154;8.682;2024-01-30T10:21:01;101446.00;;;10.90
65569;BMP180;52211;50.154;8.682;2024-01-30T10:23:29;101450.00;;;10.90
65569;BMP180;52211;50.154;8.682;2024-01-30T10:26:10;101447.00;;;10.90
65569;BMP180;52211;50.154;8.682;2024-01-30T10:28:39;101453.00;;;11.00
65569;BMP180;52211;50.154;8.682;2024-01-30T10:31:09;101448.00;;;11.00
65569;BMP180;52211;50.154;8.682;2024-01-30T10:33:39;101451.00;;;11.10
65569;BMP180;52211;50.154;8.682;2024-01-30T10:36:09;101445.00;;;11.10
65569;BMP180;52211;50.154;8.682;2024-01-30T10:38:44;101443.00;;;11.10
65569;BMP180;52211;50.154;8.682;2024-01-30T10:41:14;101439.00;;;11.20
65569;BMP180;52211;50.154;8.682;2024-01-30T10:44:02;101434.00;;;11.20
65569;BMP180;52211;50.154;8.682;2024-01-30T10:46:37;101446.00;;;11.30
65569;BMP180;52211;50.154;8.682;2024-01-30T10:49:09;101444.00;;;11.30
65569;BMP180;52211;50.154;8.682;2024-01-30T10:51:40;101434.00;;;11.30
65569;BMP180;52211;50.154;8.682;2024-01-30T10:54:13;101432.00;;;11.40
65569;BMP180;52211;50.154;8.682;2024-01-30T10:56:45;101439.00;;;11.40
65569;BMP180;52211;50.154;8.682;2024-01-30T10:59:18;101441.00;;;11.40
65569;BMP180;52211;50.154;8.682;2024-01-30T11:01:46;101442.00;;;11.50
65569;BMP180;52211;50.154;8.682;2024-01-30T11:04:19;101447.00;;;11.60
65569;BMP180;52211;50.154;8.682;2024-01-30T11:06:49;101451.00;;;11.60
65569;BMP180;52211;50.154;8.682;2024-01-30T11:09:18;101453.00;;;11.70
65569;BMP180;52211;50.154;8.682;2024-01-30T11:11:57;101456.00;;;11.80
65569;BMP180;52211;50.154;8.682;2024-01-30T11:14:33;101459.00;;;11.90
65569;BMP180;52211;50.154;8.682;2024-01-30T11:17:03;101459.00;;;11.90
65569;BMP180;52211;50.154;8.682;2024-01-30T11:19:34;101453.00;;;12.00
65569;BMP180;52211;50.154;8.682;2024-01-30T11:22:01;101438.00;;;12.00
65569;BMP180;52211;50.154;8.682;2024-01-30T11:24:28;101442.00;;;12.00
65569;BMP180;52211;50.154;8.682;2024-01-30T11:26:59;101449.00;;;12.10
65569;BMP180;52211;50.154;8.682;2024-01-30T11:29:37;101447.00;;;12.10
65569;BMP180;52211;50.154;8.682;2024-01-30T11:32:05;101446.00;;;12.20
65569;BMP180;52211;50.154;8.682;2024-01-30T11:34:34;101440.00;;;12.20
65569;BMP180;52211;50.154;8.682;2024-01-30T11:37:11;101439.00;;;12.20
65569;BMP180;52211;50.154;8.682;2024-01-30T11:39:40;101449.00;;;12.30
65569;BMP180;52211;50.154;8.682;2024-01-30T11:42:11;101442.00;;;12.30
65569;BMP180;52211;50.154;8.682;2024-01-30T11:44:40;101430.00;;;12.40
65569;BMP180;52211;50.154;8.682;2024-01-30T11:47:14;101422.00;;;12.40
65569;BMP180;52211;50.154;8.682;2024-01-30T11:49:43;101418.00;;;12.50
65569;BMP180;52211;50.154;8.682;2024-01-30T11:52:13;101413.00;;;12.50
65569;BMP180;52211;50.154;8.682;2024-01-30T11:54:43;101407.00;;;12.60
65569;BMP180;52211;50.154;8.682;2024-01-30T11:57:12;101399.00;;;12.70
65569;BMP180;52211;50.154;8.682;2024-01-30T11:59:39;101390.00;;;12.80
65569;BMP180;52211;50.154;8.682;2024-01-30T12:02:06;101393.00;;;12.90
65569;BMP180;52211;50.154;8.682;2024-01-30T12:04:33;101400.00;;;13.10
65569;BMP180;52211;50.154;8.682;2024-01-30T12:07:02;101396.00;;;13.20
65569;BMP180;52211;50.154;8.682;2024-01-30T12:09:30;101392.00;;;13.30
65569;BMP180;52211;50.154;8.682;2024-01-30T12:11:59;101401.00;;;13.30
65569;BMP180;52211;50.154;8.682;2024-01-30T12:14:27;101398.00;;;13.40
65569;BMP180;52211;50.154;8.682;2024-01-30T12:16:59;101397.00;;;13.50
65569;BMP180;52211;50.154;8.682;2024-01-30T12:19:28;101401.00;;;13.60
65569;BMP180;52211;50.154;8.682;2024-01-30T12:21:58;101395.00;;;13.60
65569;BMP180;52211;50.154;8.682;2024-01-30T12:24:28;101396.00;;;13.70
65569;BMP180;52211;50.154;8.682;2024-01-30T12:27:04;101392.00;;;13.70
65569;BMP180;52211;50.154;8.682;2024-01-30T12:29:36;101394.00;;;13.80
65569;BMP180;52211;50.154;8.682;2024-01-30T12:32:09;101395.00;;;13.80
65569;BMP180;52211;50.154;8.682;2024-01-30T12:34:41;101388.00;;;13.80
65569;BMP180;52211;50.154;8.682;2024-01-30T12:37:23;101403.00;;;13.80
65569;BMP180;52211;50.154;8.682;2024-01-30T12:39:54;101397.00;;;13.80
65569;BMP180;52211;50.154;8.682;2024-01-30T12:42:21;101397.00;;;13.80
65569;BMP180;52211;50.154;8.682;2024-01-30T12:44:49;101392.00;;;13.90
65569;BMP180;52211;50.154;8.682;2024-01-30T12:47:21;101379.00;;;13.90
65569;BMP180;52211;50.154;8.682;2024-01-30T12:49:51;101375.00;;;13.90
65569;BMP180;52211;50.154;8.682;2024-01-30T12:52:22;101371.00;;;13.90
65569;BMP180;52211;50.154;8.682;2024-01-30T12:54:50;101374.00;;;14.00
65569;BMP180;52211;50.154;8.682;2024-01-30T12:57:18;101374.00;;;14.00
65569;BMP180;52211;50.154;8.682;2024-01-30T12:59:46;101372.00;;;14.10
65569;BMP180;52211;50.154;8.682;2024-01-30T13:02:16;101371.00;;;14.10
65569;BMP180;52211;50.154;8.682;2024-01-30T13:04:43;101373.00;;;14.10
65569;BMP180;52211;50.154;8.682;2024-01-30T13:07:20;101363.00;;;14.10
65569;BMP180;52211;50.154;8.682;2024-01-30T13:09:49;101370.00;;;14.20
65569;BMP180;52211;50.154;8.682;2024-01-30T13:12:21;101356.00;;;14.40
65569;BMP180;52211;50.154;8.682;2024-01-30T13:14:50;101347.00;;;14.50
65569;BMP180;52211;50.154;8.682;2024-01-30T13:17:20;101341.00;;;14.70
65569;BMP180;52211;50.154;8.682;2024-01-30T13:19:51;101342.00;;;14.80
65569;BMP180;52211;50.154;8.682;2024-01-30T13:22:18;101336.00;;;14.90
65569;BMP180;52211;50.154;8.682;2024-01-30T13:24:50;101338.00;;;14.90
65569;BMP180;52211;50.154;8.682;2024-01-30T13:27:17;101332.00;;;14.90
65569;BMP180;52211;50.154;8.682;2024-01-30T13:29:44;101337.00;;;14.90
65569;BMP180;52211;50.154;8.682;2024-01-30T13:32:11;101345.00;;;14.90
65569;BMP180;52211;50.154;8.682;2024-01-30T13:34:41;101340.00;;;14.90
65569;BMP180;52211;50.154;8.682;2024-01-30T13:37:16;101356.00;;;14.90
65569;BMP180;52211;50.154;8.682;2024-01-30T13:39:45;101355.00;;;14.90
65569;BMP180;52211;50.154;8.682;2024-01-30T13:42:12;101357.00;;;14.90
65569;BMP180;52211;50.154;8.682;2024-01-30T13:44:39;101360.00;;;14.90
65569;BMP180;52211;50.154;8.682;2024-01-30T13:47:07;101339.00;;;14.80
65569;BMP180;52211;50.154;8.682;2024-01-30T13:49:36;101344.00;;;14.80
65569;BMP180;52211;50.154;8.682;2024-01-30T13:52:05;101347.00;;;14.70
65569;BMP180;52211;50.154;8.682;2024-01-30T13:54:37;101357.00;;;14.70
65569;BMP180;52211;50.154;8.682;2024-01-30T13:57:04;101362.00;;;14.70
65569;BMP180;52211;50.154;8.682;2024-01-30T13:59:37;101350.00;;;14.80
65569;BMP180;52211;50.154;8.682;2024-01-30T14:02:04;101347.00;;;14.70
65569;BMP180;52211;50.154;8.682;2024-01-30T14:04:35;101345.00;;;14.70
65569;BMP180;52211;50.154;8.682;2024-01-30T14:07:04;101350.00;;;14.70
65569;BMP180;52211;50.154;8.682;2024-01-30T14:09:33;101360.00;;;14.70
65569;BMP180;52211;50.154;8.682;2024-01-30T14:12:03;101363.00;;;14.70
65569;BMP180;52211;50.154;8.682;2024-01-30T14:14:32;101363.00;;;14.70
65569;BMP180;52211;50.154;8.682;2024-01-30T14:17:02;101360.00;;;14.70